Dades meteomassalio
Diari Summary for Gener 29, 2018 Units:  Metric    English   Both
« Previous Day
Next Day »
Diari Semanal Mensual Anual Personalitzat
  Maxima: Minima: Mijana:
Temperatura: -17.8 °C -18.4 °C -15.1 °C
Rosada: -17.8 °C -18.9 °C -16.7 °C
Humitat: Humidity % 56 % 83 %
Velocitat del vent: 0 km/h 0 km/h 1.8 km/h
Racha vent: 0 km/h - -
Vent:- - NW
Pressio: 0 hPa 35048.5 hPa -
Pluja: 7.62 mm    
Historical Graphs
 
 
Tabular Data for Gener 29, 2018
Time Temperature Dew Point Pressure Wind Wind Speed Wind Gust Humidity Rainfall Rate (Hourly) solar Conditions
-17.8 °C -17.8 °C 0 hPa Calm     Humidity % 0 mm SolarRadiationWatts/m^2 W/m2 Conditions
00:00 -17.2 °C -17.9 °C 35278.7 hPa Calm     91 % 0 mm 0.0 W/m2 CLR
00:05 -17.2 °C -17.8 °C 35278.7 hPa Calm     92 % 0 mm 0.0 W/m2 RA
00:10 -17.2 °C -17.8 °C 35278.7 hPa Calm     92 % 0 mm 0.0 W/m2 CLR
00:15 -17.2 °C -17.8 °C 35278.7 hPa Calm     92 % 0 mm 0.0 W/m2 CLR
00:20 -17.2 °C -17.8 °C 35278.7 hPa Calm     92 % 0 mm 0.0 W/m2 CLR
00:25 -17.2 °C -17.8 °C 35278.7 hPa Calm     92 % 0 mm 0.0 W/m2 CLR
00:30 -17.4 °C -18.2 °C 35278.7 hPa Calm     91 % 0 mm 0.0 W/m2 CLR
00:35 -17.4 °C -18.2 °C 35278.7 hPa Calm     91 % 0 mm 0.0 W/m2 CLR
00:40 -17.4 °C -18.1 °C 35265.2 hPa Calm     92 % 0 mm 0.0 W/m2 CLR
00:45 -17.4 °C -18.1 °C 35265.2 hPa Calm     92 % 0 mm 0.0 W/m2 CLR
00:50 -17.4 °C -18.1 °C 35265.2 hPa Calm     92 % 0 mm 0.0 W/m2 CLR
00:55 -17.4 °C -18.1 °C 35265.2 hPa Calm     92 % 0 mm 0.0 W/m2 CLR
01:00 -17.4 °C -18.2 °C 35265.2 hPa Calm     91 % 0 mm 0.0 W/m2 CLR
01:05 -17.4 °C -18.1 °C 35265.2 hPa Calm     92 % 0 mm 0.0 W/m2 CLR
01:10 -17.4 °C -18.1 °C 35265.2 hPa Calm     92 % 0 mm 0.0 W/m2 CLR
01:15 -17.4 °C -18.1 °C 35265.2 hPa Calm     92 % 0 mm 0.0 W/m2 CLR
01:20 -17.4 °C -18.1 °C 35265.2 hPa Calm     92 % 0 mm 0.0 W/m2 CLR
01:25 -17.4 °C -18.1 °C 35255 hPa Calm     92 % 0 mm 0.0 W/m2 CLR
01:30 -17.4 °C -18.1 °C 35255 hPa Calm     92 % 0 mm 0.0 W/m2 CLR
01:35 -17.4 °C -18.1 °C 35255 hPa Calm     92 % 0 mm 0.0 W/m2 CLR
01:40 -17.4 °C -18.1 °C 35255 hPa Calm     92 % 0 mm 0.0 W/m2 CLR
01:45 -17.4 °C -18.1 °C 35255 hPa Calm     92 % 0 mm 0.0 W/m2 CLR
01:50 -17.4 °C -18.1 °C 35255 hPa Calm     92 % 0 mm 0.0 W/m2 CLR
01:55 -17.4 °C -18.1 °C 35255 hPa Calm     92 % 0 mm 0.0 W/m2 CLR
02:00 -17.4 °C -18.1 °C 35255 hPa Calm     92 % 0 mm 0.0 W/m2 CLR
02:05 -17.4 °C -18.1 °C 35255 hPa Calm     92 % 0 mm 0.0 W/m2 CLR
02:10 -17.4 °C -18.1 °C 35255 hPa Calm     92 % 0 mm 0.0 W/m2 CLR
02:15 -17.4 °C -18.1 °C 35255 hPa Calm     92 % 0 mm 0.0 W/m2 CLR
02:20 -17.4 °C -18.1 °C 35255 hPa Calm     92 % 0 mm 0.0 W/m2 CLR
02:25 -17.8 °C -18.4 °C 35255 hPa Calm     92 % 0 mm 0.0 W/m2 CLR
02:30 -17.4 °C -18.1 °C 35255 hPa Calm     92 % 0 mm 0.0 W/m2 CLR
02:35 -17.8 °C -18.4 °C 35255 hPa Calm     92 % 0 mm 0.0 W/m2 CLR
02:40 -17.8 °C -18.4 °C 35255 hPa Calm     92 % 0 mm 0.0 W/m2 CLR
02:45 -17.8 °C -18.4 °C 35255 hPa Calm     92 % 0 mm 0.0 W/m2 CLR
02:50 -17.8 °C -18.4 °C 35255 hPa Calm     92 % 0 mm 0.0 W/m2 CLR
02:55 -17.8 °C -18.4 °C 35255 hPa Calm     92 % 0 mm 0.0 W/m2 CLR
03:00 -17.8 °C -18.4 °C 35255 hPa Calm     92 % 0 mm 0.0 W/m2 CLR
03:05 -17.8 °C -18.4 °C 35255 hPa Calm     92 % 0 mm 0.0 W/m2 CLR
03:10 -17.8 °C -18.4 °C 35244.9 hPa Calm     92 % 0 mm 0.0 W/m2 CLR
03:15 -17.8 °C -18.4 °C 35244.9 hPa Calm     92 % 0 mm 0.0 W/m2 CLR
03:20 -17.8 °C -18.4 °C 35244.9 hPa Calm     92 % 0 mm 0.0 W/m2 CLR
03:25 -17.8 °C -18.4 °C 35244.9 hPa Calm     92 % 0 mm 0.0 W/m2 CLR
03:30 -17.8 °C -18.4 °C 35244.9 hPa Calm     92 % 0 mm 0.0 W/m2 CLR
03:35 -17.8 °C -18.4 °C 35244.9 hPa Calm     92 % 0 mm 0.0 W/m2 CLR
03:40 -17.8 °C -18.4 °C 35244.9 hPa Calm     92 % 0 mm 0.0 W/m2 CLR
03:45 -17.8 °C -18.3 °C 35244.9 hPa Calm     93 % 0 mm 0.0 W/m2 CLR
03:50 -17.8 °C -18.4 °C 35244.9 hPa Calm     92 % 0 mm 0.0 W/m2 CLR
03:55 -17.8 °C -18.4 °C 35244.9 hPa Calm     92 % 0 mm 0.0 W/m2 CLR
04:00 -18.1 °C -18.7 °C 35244.9 hPa Calm     92 % 0 mm 0.0 W/m2 CLR
04:05 -18.1 °C -18.7 °C 35231.3 hPa Calm     93 % 0 mm 0.0 W/m2 CLR
04:10 -18.1 °C -18.7 °C 35231.3 hPa Calm     93 % 0 mm 0.0 W/m2 CLR
04:15 -18.1 °C -18.7 °C 35231.3 hPa Calm     93 % 0 mm 0.0 W/m2 CLR
04:20 -18.1 °C -18.7 °C 35231.3 hPa Calm     93 % 0 mm 0.0 W/m2 CLR
04:25 -18.1 °C -18.7 °C 35231.3 hPa Calm     92 % 0 mm 0.0 W/m2 CLR
04:30 -18.1 °C -18.7 °C 35231.3 hPa Calm     92 % 0 mm 0.0 W/m2 CLR
04:35 -18.1 °C -18.7 °C 35231.3 hPa Calm     92 % 0 mm 0.0 W/m2 CLR
04:40 -18.1 °C -18.7 °C 35231.3 hPa Calm     92 % 0 mm 0.0 W/m2 CLR
04:45 -18.1 °C -18.7 °C 35231.3 hPa Calm     93 % 0 mm 0.0 W/m2 CLR
04:50 -18.1 °C -18.7 °C 35221.2 hPa Calm     93 % 0 mm 0.0 W/m2 CLR
04:55 -18.1 °C -18.7 °C 35231.3 hPa Calm     93 % 0 mm 0.0 W/m2 CLR
05:00 -18.1 °C -18.7 °C 35231.3 hPa Calm     93 % 0 mm 0.0 W/m2 CLR
05:05 -18.1 °C -18.7 °C 35221.2 hPa Calm     93 % 0 mm 0.0 W/m2 CLR
05:10 -18.1 °C -18.7 °C 35231.3 hPa Calm     93 % 0 mm 0.0 W/m2 CLR
05:15 -18.1 °C -18.7 °C 35231.3 hPa Calm     93 % 0 mm 0.0 W/m2 CLR
05:20 -17.8 °C -18.3 °C 35221.2 hPa Calm     93 % 0 mm 0.0 W/m2 CLR
05:25 -17.8 °C -18.3 °C 35221.2 hPa Calm     93 % 0 mm 0.0 W/m2 CLR
05:30 -18.1 °C -18.7 °C 35221.2 hPa Calm     92 % 0 mm 0.0 W/m2 CLR
05:35 -18.1 °C -18.7 °C 35221.2 hPa Calm     93 % 0 mm 0.0 W/m2 CLR
05:40 -18.1 °C -18.7 °C 35221.2 hPa Calm     93 % 0 mm 0.0 W/m2 CLR
05:45 -18.1 °C -18.7 °C 35221.2 hPa Calm     93 % 0 mm 0.0 W/m2 CLR
05:50 -18.1 °C -18.7 °C 35221.2 hPa Calm     93 % 0 mm 0.0 W/m2 CLR
05:55 -18.1 °C -18.7 °C 35221.2 hPa Calm     93 % 0 mm 0.0 W/m2 CLR
06:00 -18.1 °C -18.7 °C 35221.2 hPa Calm     92 % 0 mm 0.0 W/m2 CLR
06:05 -18.1 °C -18.7 °C 35221.2 hPa Calm     92 % 0 mm 0.0 W/m2 CLR
06:10 -18.1 °C -18.7 °C 35221.2 hPa Calm     93 % 0 mm 0.0 W/m2 CLR
06:15 -18.1 °C -18.7 °C 35221.2 hPa Calm     93 % 0 mm 0.0 W/m2 CLR
06:20 -18.1 °C -18.7 °C 35207.6 hPa Calm     93 % 0 mm 0.0 W/m2 CLR
06:25 -18.1 °C -18.7 °C 35207.6 hPa Calm     93 % 0 mm 0.0 W/m2 CLR
06:30 -18.1 °C -18.7 °C 35207.6 hPa Calm     93 % 0 mm 0.0 W/m2 CLR
06:35 -18.1 °C -18.7 °C 35207.6 hPa Calm     93 % 0 mm 0.0 W/m2 CLR
06:41 -18.1 °C -18.7 °C 35207.6 hPa Calm     93 % 0 mm 0.0 W/m2 CLR
06:46 -18.1 °C -18.7 °C 35207.6 hPa Calm     93 % 0 mm 0.0 W/m2 CLR
06:51 -18.1 °C -18.7 °C 35207.6 hPa Calm     93 % 0 mm 0.0 W/m2 CLR
06:56 -18.1 °C -18.7 °C 35207.6 hPa Calm     93 % 0 mm 0.0 W/m2 CLR
07:01 -18.4 °C -18.9 °C 35207.6 hPa Calm     93 % 0 mm 0.0 W/m2 CLR
07:06 -18.1 °C -18.7 °C 35207.6 hPa Calm     93 % 0 mm 0.0 W/m2 CLR
07:11 -18.1 °C -18.7 °C 35207.6 hPa Calm     93 % 0 mm 0.0 W/m2 CLR
07:16 -18.1 °C -18.7 °C 35207.6 hPa Calm     93 % 0 mm 0.0 W/m2 CLR
07:21 -18.1 °C -18.7 °C 35221.2 hPa Calm     93 % 0 mm 0.0 W/m2 CLR
07:26 -18.1 °C -18.7 °C 35207.6 hPa Calm     93 % 0 mm 0.0 W/m2 CLR
07:31 -18.4 °C -18.9 °C 35221.2 hPa Calm     93 % 0 mm 0.0 W/m2 CLR
07:36 -18.1 °C -18.7 °C 35221.2 hPa Calm     93 % 0 mm 0.0 W/m2 CLR
07:41 -18.1 °C -18.7 °C 35221.2 hPa Calm     93 % 0 mm 0.0 W/m2 CLR
07:46 -18.1 °C -18.7 °C 35221.2 hPa Calm     93 % 0 mm 0.0 W/m2 CLR
07:51 -18.1 °C -18.7 °C 35221.2 hPa Calm     93 % 0 mm 0.0 W/m2 CLR
07:56 -18.1 °C -18.7 °C 35221.2 hPa Calm     93 % 0 mm 0.0 W/m2 CLR
08:01 -18.1 °C -18.7 °C 35221.2 hPa Calm     93 % 0 mm 0.0 W/m2 CLR
08:06 -18.1 °C -18.7 °C 35221.2 hPa Calm     93 % 0 mm 0.0 W/m2 OVC
08:11 -18.1 °C -18.7 °C 35221.2 hPa Calm     93 % 0 mm 0.0 W/m2 OVC
08:16 -18.1 °C -18.7 °C 35221.2 hPa Calm     93 % 0 mm 5.0 W/m2 OVC
08:21 -18.1 °C -18.7 °C 35231.3 hPa Calm     93 % 0 mm 9.0 W/m2 BKN
08:26 -18.1 °C -18.7 °C 35231.3 hPa Calm     93 % 0 mm 11.0 W/m2 BKN
08:31 -18.1 °C -18.7 °C 35231.3 hPa Calm     93 % 0 mm 14.0 W/m2 BKN
08:36 -18.1 °C -18.7 °C 35231.3 hPa Calm     93 % 0 mm 18.0 W/m2 BKN
08:41 -18.1 °C -18.7 °C 35231.3 hPa Calm     93 % 0 mm 23.0 W/m2 BKN
08:46 -18.1 °C -18.7 °C 35231.3 hPa Calm     93 % 0 mm 30.0 W/m2 BKN
08:51 -17.8 °C -18.3 °C 35231.3 hPa Calm     93 % 0 mm 42.0 W/m2 BKN
08:56 -17.8 °C -18.3 °C 35231.3 hPa Calm     93 % 0 mm 51.0 W/m2 SCT
09:01 -18.1 °C -18.7 °C 35231.3 hPa Calm     93 % 0 mm 54.0 W/m2 SCT
09:06 -18.1 °C -18.7 °C 35231.3 hPa Calm     93 % 0 mm 72.0 W/m2 FEW
09:11 -17.8 °C -18.3 °C 35231.3 hPa Calm     93 % 0 mm 83.0 W/m2 FEW
09:16 -17.8 °C -18.3 °C 35231.3 hPa Calm     93 % 0 mm 83.0 W/m2 FEW
09:21 -17.8 °C -18.3 °C 35231.3 hPa Calm     93 % 0 mm 109.0 W/m2 CLR
09:26 -17.8 °C -18.3 °C 35231.3 hPa Calm     93 % 7.62 mm 121.0 W/m2 RA
09:31 -17.4 °C -18 °C 35231.3 hPa Calm     93 % 7.62 mm 127.0 W/m2 CLR
09:36 -17.4 °C -18 °C 35231.3 hPa Calm     93 % 7.62 mm 153.0 W/m2 CLR
09:41 -17.4 °C -18 °C 35221.2 hPa Calm     93 % 7.62 mm 165.0 W/m2 CLR
09:46 -17.2 °C -17.7 °C 35231.3 hPa Calm     93 % 7.62 mm 178.0 W/m2 CLR
09:51 -17.2 °C -17.7 °C 35231.3 hPa Calm     93 % 7.62 mm 193.0 W/m2 CLR
09:56 -16.8 °C -17.4 °C 35231.3 hPa Calm     93 % 7.62 mm 93.0 W/m2 CLR
10:01 -16.8 °C -17.4 °C 35231.3 hPa Calm     93 % 7.62 mm 223.0 W/m2 CLR
10:06 -16.6 °C -17.1 °C 35231.3 hPa Calm     93 % 7.62 mm 237.0 W/m2 CLR
10:11 -16.6 °C -17.1 °C 35231.3 hPa Calm     93 % 7.62 mm 251.0 W/m2 CLR
10:16 -16.6 °C -17.1 °C 35231.3 hPa Calm     93 % 7.62 mm 262.0 W/m2 CLR
10:21 -16.2 °C -16.8 °C 35231.3 hPa Calm     93 % 7.62 mm 272.0 W/m2 CLR
10:26 -15.9 °C -16.5 °C 35231.3 hPa Calm     93 % 0 mm 283.0 W/m2 CLR
10:31 -15.6 °C -16.2 °C 35231.3 hPa Calm     93 % 0 mm 297.0 W/m2 CLR
10:36 -15.3 °C -15.9 °C 35231.3 hPa Calm     93 % 0 mm 309.0 W/m2 CLR
10:41 -15 °C -15.6 °C 35231.3 hPa Calm     93 % 0 mm 322.0 W/m2 CLR
10:46 -14.7 °C -15.4 °C 35231.3 hPa Calm     92 % 0 mm 332.0 W/m2 CLR
10:51 -14.7 °C -15.4 °C 35231.3 hPa Calm     92 % 0 mm 348.0 W/m2 CLR
10:56 -14.4 °C -15.1 °C 35221.2 hPa Calm     91 % 0 mm 366.0 W/m2 CLR
11:01 -14.4 °C -15.3 °C 35221.2 hPa Calm     89 % 0 mm 378.0 W/m2 CLR
11:06 -14.4 °C -15.4 °C 35231.3 hPa Calm     88 % 0 mm 388.0 W/m2 CLR
11:11 -13.8 °C -14.9 °C 35221.2 hPa Calm     86 % 0 mm 401.0 W/m2 CLR
11:16 -13.8 °C -15.1 °C 35221.2 hPa Calm     85 % 0 mm 408.0 W/m2 CLR
11:22 -13.4 °C -14.9 °C 35221.2 hPa Calm     84 % 0 mm 417.0 W/m2 CLR
11:27 -13.2 °C -14.7 °C 35231.3 hPa Calm     83 % 0 mm 427.0 W/m2 CLR
11:32 -13.2 °C -14.6 °C 35231.3 hPa Calm     84 % 0 mm 434.0 W/m2 CLR
11:37 -13.2 °C -14.7 °C 35221.2 hPa Calm     83 % 0 mm 441.0 W/m2 CLR
11:42 -12.8 °C -14.7 °C 35221.2 hPa Calm     80 % 0 mm 448.0 W/m2 CLR
11:47 -12.8 °C -14.8 °C 35221.2 hPa Calm     79 % 0 mm 457.0 W/m2 CLR
11:52 -12.6 °C -14.7 °C 35231.3 hPa NNW 15.6 km/h 15.6 km/h 77 % 0 mm 462.0 W/m2 CLR
11:57 -12.2 °C -14.3 °C 35221.2 hPa NNW 11.9 km/h 11.9 km/h 77 % 0 mm 469.0 W/m2 CLR
12:02 -11.9 °C -14.2 °C 35221.2 hPa NNW 11.9 km/h 11.9 km/h 76 % 0 mm 475.0 W/m2 CLR
12:07 -11.6 °C -14 °C 35221.2 hPa North 20.9 km/h 20.9 km/h 75 % 0 mm 482.0 W/m2 CLR
12:12 -11.3 °C -13.6 °C 35221.2 hPa NNW 20.9 km/h 20.9 km/h 76 % 0 mm 487.0 W/m2 CLR
12:17 -11.3 °C -13.8 °C 35207.6 hPa NNW 26.9 km/h 26.9 km/h 74 % 0 mm 490.0 W/m2 CLR
12:22 -11.3 °C -13.8 °C 35207.6 hPa NNW 20.9 km/h 20.9 km/h 74 % 0 mm 496.0 W/m2 CLR
12:27 -11.3 °C -13.9 °C 35207.6 hPa North 17.9 km/h 17.9 km/h 73 % 0 mm 499.0 W/m2 CLR
12:32 -11 °C -13.5 °C 35207.6 hPa NNW 17.9 km/h 17.9 km/h 74 % 0 mm 504.0 W/m2 CLR
12:37 -11 °C -13.5 °C 35197.5 hPa NNW 17.9 km/h 17.9 km/h 74 % 0 mm 508.0 W/m2 CLR
12:42 -11 °C -13.7 °C 35197.5 hPa NNW 15.6 km/h 15.6 km/h 72 % 0 mm 512.0 W/m2 CLR
12:47 -11 °C -13.8 °C 35197.5 hPa WNW 23.8 km/h 23.8 km/h 71 % 0 mm 513.0 W/m2 CLR
12:52 -10.7 °C -13.7 °C 35197.5 hPa NW 9 km/h 9 km/h 70 % 0 mm 515.0 W/m2 CLR
12:57 -11 °C -13.6 °C 35187.3 hPa NW 11.9 km/h 11.9 km/h 73 % 0 mm 515.0 W/m2 CLR
13:02 -11 °C -14.1 °C 35187.3 hPa NW 15 km/h 15 km/h 69 % 0 mm 519.0 W/m2 CLR
13:07 -10.7 °C -13.7 °C 35187.3 hPa NNW 11.9 km/h 11.9 km/h 70 % 0 mm 520.0 W/m2 CLR
13:12 -10.7 °C -13.8 °C 35173.8 hPa WNW 6 km/h   69 % 0 mm 519.0 W/m2 CLR
13:17 -10.4 °C -13.4 °C 35173.8 hPa NNW 10.3 km/h 10.3 km/h 69 % 0 mm 520.0 W/m2 CLR
13:22 -10.4 °C -13.4 °C 35173.8 hPa NW 9 km/h 9 km/h 69 % 0 mm 520.0 W/m2 CLR
13:27 -10.4 °C -13.6 °C 35163.6 hPa NW 9 km/h 9 km/h 68 % 0 mm 520.0 W/m2 CLR
13:32 -10.4 °C -13.3 °C 35163.6 hPa NNW 10.3 km/h 10.3 km/h 70 % 0 mm 519.0 W/m2 CLR
13:37 -10.1 °C -13.2 °C 35163.6 hPa NNW 9 km/h 9 km/h 69 % 0 mm 517.0 W/m2 CLR
13:42 -10.1 °C -13.4 °C 35150.1 hPa North 10.3 km/h 10.3 km/h 67 % 0 mm 517.0 W/m2 CLR
13:47 -10.1 °C -13.3 °C 35150.1 hPa North 9 km/h 9 km/h 68 % 0 mm 513.0 W/m2 CLR
13:52 -10.1 °C -13.6 °C 35150.1 hPa NNW 6 km/h 6 km/h 66 % 0 mm 512.0 W/m2 CLR
13:57 -10.1 °C -13.6 °C 35139.9 hPa Calm     66 % 0 mm 508.0 W/m2 CLR
14:02 -10.1 °C -13.6 °C 35139.9 hPa Calm     66 % 0 mm 504.0 W/m2 CLR
14:07 -9.8 °C -13.2 °C 35139.9 hPa NW 10.3 km/h 10.3 km/h 66 % 0 mm 499.0 W/m2 CLR
14:12 -9.8 °C -13.4 °C 35129.8 hPa NNW 6 km/h 6 km/h 65 % 0 mm 497.0 W/m2 CLR
14:17 -9.8 °C -13.4 °C 35129.8 hPa NNW 9 km/h 9 km/h 65 % 0 mm 494.0 W/m2 CLR
14:22 -9.4 °C -13.2 °C 35129.8 hPa North 9 km/h 9 km/h 64 % 0 mm 485.0 W/m2 CLR
14:27 -9.4 °C -13.1 °C 35116.2 hPa NNW 11.9 km/h 11.9 km/h 65 % 0 mm 480.0 W/m2 CLR
14:32 -9.4 °C -13.2 °C 35116.2 hPa NNW 9 km/h 9 km/h 64 % 0 mm 475.0 W/m2 CLR
14:37 -9.4 °C -13.4 °C 35116.2 hPa Calm     62 % 0 mm 468.0 W/m2 CLR
14:42 -9.4 °C -13.4 °C 35106 hPa North 7.7 km/h 7.7 km/h 62 % 0 mm 464.0 W/m2 CLR
14:47 -9.8 °C -14 °C 35106 hPa NNW 2.6 km/h   60 % 0 mm 455.0 W/m2 CLR
14:52 -9.4 °C -13.4 °C 35095.9 hPa Calm     62 % 0 mm 446.0 W/m2 CLR
14:57 -9.4 °C -13.3 °C 35095.9 hPa North 11.9 km/h 11.9 km/h 63 % 0 mm 439.0 W/m2 CLR
15:02 -9.4 °C -13.6 °C 35095.9 hPa NNW 10.3 km/h 10.3 km/h 61 % 0 mm 432.0 W/m2 CLR
15:07 -9.4 °C -13.8 °C 35095.9 hPa North 6 km/h   59 % 0 mm 422.0 W/m2 CLR
15:12 -9.4 °C -13.6 °C 35095.9 hPa North 6 km/h   61 % 0 mm 415.0 W/m2 CLR
15:17 -9.4 °C -13.4 °C 35095.9 hPa Calm     62 % 0 mm 406.0 W/m2 CLR
15:22 -9.4 °C -13.7 °C 35082.3 hPa NW 3.1 km/h   60 % 0 mm 397.0 W/m2 CLR
15:27 -9.4 °C -13.8 °C 35082.3 hPa Calm     59 % 0 mm 383.0 W/m2 CLR
15:32 -9.4 °C -13.7 °C 35082.3 hPa NNW 9 km/h 9 km/h 60 % 0 mm 374.0 W/m2 CLR
15:37 -9.4 °C -14 °C 35082.3 hPa Calm     58 % 0 mm 366.0 W/m2 CLR
15:42 -9.4 °C -13.8 °C 35082.3 hPa Calm     59 % 0 mm 355.0 W/m2 CLR
15:47 -9.1 °C -13.3 °C 35082.3 hPa NNW 9 km/h 9 km/h 61 % 0 mm 343.0 W/m2 CLR
15:52 -9.4 °C -13.6 °C 35072.2 hPa North 6 km/h 6 km/h 61 % 0 mm 330.0 W/m2 CLR
15:57 -9.4 °C -13.8 °C 35072.2 hPa Calm     59 % 0 mm 318.0 W/m2 CLR
16:02 -9.4 °C -14 °C 35072.2 hPa Calm     58 % 0 mm 309.0 W/m2 CLR
16:07 -9.4 °C -14 °C 35072.2 hPa Calm     58 % 0 mm 297.0 W/m2 CLR
16:12 -9.4 °C -13.8 °C 35072.2 hPa Calm     59 % 0 mm 285.0 W/m2 CLR
16:17 -9.4 °C -14 °C 35072.2 hPa Calm     58 % 0 mm 271.0 W/m2 CLR
16:22 -9.8 °C -14.3 °C 35072.2 hPa ESE 2.6 km/h 2.6 km/h 58 % 0 mm 257.0 W/m2 CLR
16:27 -9.8 °C -14.4 °C 35072.2 hPa Calm     57 % 0 mm 241.0 W/m2 CLR
16:32 -9.8 °C -14.3 °C 35072.2 hPa Calm     58 % 0 mm 223.0 W/m2 CLR
16:37 -9.8 °C -14.2 °C 35072.2 hPa Calm     59 % 0 mm 209.0 W/m2 CLR
16:42 -9.8 °C -14.2 °C 35058.6 hPa Calm     59 % 0 mm 193.0 W/m2 CLR
16:47 -10.1 °C -14.4 °C 35058.6 hPa Calm     59 % 0 mm 179.0 W/m2 CLR
16:52 -10.1 °C -14.4 °C 35058.6 hPa Calm     59 % 0 mm 158.0 W/m2 CLR
16:57 -10.1 °C -14.7 °C 35058.6 hPa Calm     57 % 0 mm 142.0 W/m2 CLR
17:02 -10.4 °C -15.2 °C 35058.6 hPa Calm     56 % 0 mm 128.0 W/m2 CLR
17:07 -10.7 °C -15.2 °C 35058.6 hPa Calm     58 % 0 mm 113.0 W/m2 CLR
17:12 -10.7 °C -15.2 °C 35058.6 hPa Calm     58 % 0 mm 100.0 W/m2 CLR
17:18 -11 °C -15.4 °C 35058.6 hPa Calm     58 % 0 mm 81.0 W/m2 CLR
17:23 -11.3 °C -15.3 °C 35058.6 hPa Calm     61 % 0 mm 65.0 W/m2 SCT
17:28 -11.6 °C -15.6 °C 35058.6 hPa Calm     61 % 0 mm 54.0 W/m2 SCT
17:33 -11.6 °C -15.6 °C 35058.6 hPa Calm     61 % 0 mm 44.0 W/m2 BKN
17:38 -11.9 °C -15.9 °C 35058.6 hPa Calm     61 % 0 mm 32.0 W/m2 BKN
17:43 -12.2 °C -16.1 °C 35058.6 hPa Calm     62 % 0 mm 25.0 W/m2 BKN
17:48 -12.2 °C -15.9 °C 35058.6 hPa Calm     63 % 0 mm 19.0 W/m2 BKN
17:53 -12.6 °C -16.3 °C 35048.5 hPa ESE 6 km/h 6 km/h 63 % 0 mm 14.0 W/m2 BKN
17:58 -12.8 °C -16.4 °C 35048.5 hPa ESE 6 km/h   64 % 0 mm 12.0 W/m2 BKN
18:03 -13.2 °C -16.5 °C 35048.5 hPa Calm     66 % 0 mm 9.0 W/m2 BKN
18:08 -13.2 °C -16.3 °C 35048.5 hPa Calm     67 % 0 mm 7.0 W/m2 BKN
18:13 -13.2 °C -16 °C 35058.6 hPa Calm     70 % 0 mm 5.0 W/m2 OVC
18:18 -13.4 °C -16.3 °C 35058.6 hPa Calm     70 % 0 mm 0.0 W/m2 OVC
18:23 -13.4 °C -16.3 °C 35058.6 hPa Calm     70 % 0 mm 0.0 W/m2 CLR
18:28 -13.8 °C -16.5 °C 35048.5 hPa Calm     71 % 0 mm 0.0 W/m2 CLR
18:33 -13.8 °C -16.4 °C 35058.6 hPa Calm     72 % 0 mm 0.0 W/m2 CLR
18:38 -13.8 °C -16.2 °C 35058.6 hPa Calm     74 % 0 mm 0.0 W/m2 CLR
18:43 -13.4 °C -15.8 °C 35058.6 hPa Calm     75 % 0 mm 0.0 W/m2 CLR
18:48 -13.4 °C -15.7 °C 35058.6 hPa Calm     76 % 0 mm 0.0 W/m2 CLR
18:53 -13.4 °C -15.7 °C 35058.6 hPa Calm     76 % 0 mm 0.0 W/m2 CLR
18:58 -13.4 °C -15.6 °C 35058.6 hPa Calm     77 % 0 mm 0.0 W/m2 CLR
19:03 -13.8 °C -15.7 °C 35058.6 hPa Calm     79 % 0 mm 0.0 W/m2 CLR
19:08 -13.8 °C -15.6 °C 35058.6 hPa Calm     80 % 0 mm 0.0 W/m2 CLR
19:13 -14.1 °C -15.9 °C 35058.6 hPa Calm     80 % 0 mm 0.0 W/m2 CLR
19:18 -14.1 °C -15.8 °C 35058.6 hPa Calm     81 % 0 mm 0.0 W/m2 CLR
19:23 -14.4 °C -15.9 °C 35058.6 hPa Calm     82 % 0 mm 0.0 W/m2 CLR
19:28 -14.7 °C -16.3 °C 35058.6 hPa Calm     82 % 0 mm 0.0 W/m2 CLR
19:33 -15 °C -16.5 °C 35058.6 hPa Calm     83 % 0 mm 0.0 W/m2 CLR
19:38 -15 °C -16.4 °C 35058.6 hPa Calm     84 % 0 mm 0.0 W/m2 CLR
19:43 -15 °C -16.3 °C 35058.6 hPa Calm     85 % 0 mm 0.0 W/m2 CLR
19:48 -15 °C -16.2 °C 35058.6 hPa Calm     86 % 0 mm 0.0 W/m2 CLR
19:53 -15 °C -16.1 °C 35058.6 hPa Calm     87 % 0 mm 0.0 W/m2 CLR
19:58 -15 °C -16.1 °C 35058.6 hPa Calm     87 % 0 mm 0.0 W/m2 CLR
20:03 -15 °C -16 °C 35058.6 hPa Calm     88 % 0 mm 0.0 W/m2 CLR
20:08 -15.3 °C -16.4 °C 35072.2 hPa Calm     87 % 0 mm 0.0 W/m2 CLR
20:13 -15.3 °C -16.3 °C 35072.2 hPa Calm     88 % 0 mm 0.0 W/m2 CLR
20:18 -15.6 °C -16.6 °C 35072.2 hPa Calm     88 % 0 mm 0.0 W/m2 CLR
20:23 -15.6 °C -16.6 °C 35072.2 hPa Calm     88 % 0 mm 0.0 W/m2 CLR
20:28 -15.9 °C -16.9 °C 35058.6 hPa Calm     88 % 0 mm 0.0 W/m2 CLR
20:33 -15.9 °C -16.9 °C 35072.2 hPa Calm     88 % 0 mm 0.0 W/m2 CLR
20:38 -15.9 °C -16.9 °C 35072.2 hPa Calm     88 % 0 mm 0.0 W/m2 CLR
20:43 -16.2 °C -17.1 °C 35072.2 hPa Calm     89 % 0 mm 0.0 W/m2 CLR
20:48 -15.9 °C -16.8 °C 35072.2 hPa Calm     89 % 0 mm 0.0 W/m2 CLR
20:53 -15.9 °C -16.8 °C 35072.2 hPa Calm     89 % 0 mm 0.0 W/m2 CLR
20:58 -15.9 °C -16.8 °C 35072.2 hPa Calm     89 % 0 mm 0.0 W/m2 CLR
21:04 -15.9 °C -16.8 °C 35072.2 hPa Calm     89 % 0 mm 0.0 W/m2 CLR
21:08 -15.9 °C -16.8 °C 35072.2 hPa Calm     89 % 0 mm 0.0 W/m2 CLR
21:14 -16.2 °C -17.1 °C 35072.2 hPa Calm     90 % 0 mm 0.0 W/m2 CLR
21:19 -16.2 °C -17.1 °C 35072.2 hPa Calm     90 % 0 mm 0.0 W/m2 CLR
21:24 -16.2 °C -17.1 °C 35072.2 hPa Calm     90 % 0 mm 0.0 W/m2 CLR
21:29 -16.2 °C -17.1 °C 35072.2 hPa Calm     90 % 0 mm 0.0 W/m2 CLR
21:34 -15.9 °C -16.8 °C 35072.2 hPa Calm     90 % 0 mm 0.0 W/m2 CLR
21:39 -16.2 °C -17.1 °C 35082.3 hPa Calm     90 % 0 mm 0.0 W/m2 CLR
21:44 -16.2 °C -17.1 °C 35082.3 hPa Calm     90 % 0 mm 0.0 W/m2 CLR
21:49 -16.2 °C -17.1 °C 35082.3 hPa Calm     90 % 0 mm 0.0 W/m2 CLR
21:54 -16.6 °C -17.3 °C 35082.3 hPa Calm     90 % 0 mm 0.0 W/m2 CLR
21:59 -16.6 °C -17.3 °C 35072.2 hPa Calm     90 % 0 mm 0.0 W/m2 CLR
22:04 -16.2 °C -17.1 °C 35072.2 hPa Calm     90 % 0 mm 0.0 W/m2 CLR
22:09 -16.2 °C -17.1 °C 35072.2 hPa Calm     90 % 0 mm 0.0 W/m2 CLR
22:14 -16.2 °C -17.1 °C 35072.2 hPa Calm     90 % 0 mm 0.0 W/m2 CLR
22:19 -16.2 °C -17.1 °C 35072.2 hPa Calm     90 % 0 mm 0.0 W/m2 CLR
22:24 -16.2 °C -17.1 °C 35072.2 hPa Calm     90 % 0 mm 0.0 W/m2 CLR
22:29 -16.2 °C -17 °C 35072.2 hPa Calm     91 % 0 mm 0.0 W/m2 CLR
22:34 -16.6 °C -17.3 °C 35072.2 hPa Calm     91 % 0 mm 0.0 W/m2 CLR
22:39 -16.6 °C -17.3 °C 35072.2 hPa Calm     91 % 0 mm 0.0 W/m2 CLR
22:44 -16.6 °C -17.3 °C 35072.2 hPa Calm     91 % 0 mm 0.0 W/m2 CLR
22:49 -16.6 °C -17.3 °C 35072.2 hPa Calm     91 % 0 mm 0.0 W/m2 CLR
22:54 -16.6 °C -17.3 °C 35072.2 hPa Calm     91 % 0 mm 0.0 W/m2 CLR
22:59 -16.6 °C -17.3 °C 35072.2 hPa Calm     91 % 0 mm 0.0 W/m2 CLR
23:04 -16.6 °C -17.3 °C 35082.3 hPa Calm     91 % 0 mm 0.0 W/m2 CLR
23:09 -16.6 °C -17.3 °C 35082.3 hPa Calm     91 % 0 mm 0.0 W/m2 CLR
23:14 -16.6 °C -17.3 °C 35082.3 hPa Calm     91 % 0 mm 0.0 W/m2 CLR
23:19 -16.6 °C -17.3 °C 35082.3 hPa Calm     91 % 0 mm 0.0 W/m2 CLR
23:24 -16.8 °C -17.6 °C 35082.3 hPa Calm     91 % 0 mm 0.0 W/m2 CLR
23:29 -16.8 °C -17.5 °C 35082.3 hPa Calm     92 % 0 mm 0.0 W/m2 CLR
23:34 -16.8 °C -17.5 °C 35082.3 hPa Calm     92 % 0 mm 0.0 W/m2 CLR
23:39 -17.2 °C -17.9 °C 35072.2 hPa Calm     91 % 0 mm 0.0 W/m2 CLR
23:44 -16.8 °C -17.6 °C 35082.3 hPa Calm     91 % 0 mm 0.0 W/m2 CLR
23:49 -16.8 °C -17.5 °C 35082.3 hPa Calm     92 % 0 mm 0.0 W/m2 CLR
23:54 -16.8 °C -17.6 °C 35082.3 hPa Calm     91 % 0 mm 0.0 W/m2 CLR
23:59 -16.8 °C -17.5 °C 35082.3 hPa Calm     92 % 0 mm 0.0 W/m2 CLR
Lo Temps de Massalio
Compliments of Weather Underground - 1.25 mb